sensor_id;sensor_type;location;lat;lon;timestamp;pressure;altitude;pressure_sealevel;temperature;humidity
70133;BME280;57495;49.922;7.966;2022-12-01T00:01:59;100676.16;;;6.81;100.00
70133;BME280;57495;49.922;7.966;2022-12-01T00:04:01;100669.88;;;6.82;100.00
70133;BME280;57495;49.922;7.966;2022-12-01T00:06:03;100672.34;;;6.85;100.00
70133;BME280;57495;49.922;7.966;2022-12-01T00:08:05;100673.06;;;6.87;100.00
70133;BME280;57495;49.922;7.966;2022-12-01T00:10:09;100669.56;;;6.87;100.00
70133;BME280;57495;49.922;7.966;2022-12-01T00:12:25;100671.47;;;6.85;100.00
70133;BME280;57495;49.922;7.966;2022-12-01T00:14:28;100671.34;;;6.86;100.00
70133;BME280;57495;49.922;7.966;2022-12-01T00:16:29;100665.72;;;6.78;100.00
70133;BME280;57495;49.922;7.966;2022-12-01T00:18:31;100663.72;;;6.82;100.00
70133;BME280;57495;49.922;7.966;2022-12-01T00:20:34;100667.09;;;6.84;100.00
70133;BME280;57495;49.922;7.966;2022-12-01T00:22:35;100668.78;;;6.85;100.00
70133;BME280;57495;49.922;7.966;2022-12-01T00:24:37;100664.34;;;6.85;100.00
70133;BME280;57495;49.922;7.966;2022-12-01T00:26:39;100663.63;;;6.83;100.00
70133;BME280;57495;49.922;7.966;2022-12-01T00:28:40;100658.38;;;6.82;100.00
70133;BME280;57495;49.922;7.966;2022-12-01T00:30:43;100652.84;;;6.85;100.00
70133;BME280;57495;49.922;7.966;2022-12-01T00:32:45;100660.31;;;6.80;100.00
70133;BME280;57495;49.922;7.966;2022-12-01T00:34:47;100663.47;;;6.85;100.00
70133;BME280;57495;49.922;7.966;2022-12-01T00:36:48;100660.72;;;6.86;100.00
70133;BME280;57495;49.922;7.966;2022-12-01T00:38:51;100660.81;;;6.85;100.00
70133;BME280;57495;49.922;7.966;2022-12-01T00:40:53;100666.03;;;6.86;100.00
70133;BME280;57495;49.922;7.966;2022-12-01T00:42:54;100667.09;;;6.84;100.00
70133;BME280;57495;49.922;7.966;2022-12-01T00:44:56;100668.94;;;6.83;100.00
70133;BME280;57495;49.922;7.966;2022-12-01T00:46:59;100668.78;;;6.85;100.00
70133;BME280;57495;49.922;7.966;2022-12-01T00:49:00;100668.69;;;6.86;100.00
70133;BME280;57495;49.922;7.966;2022-12-01T00:51:02;100661.59;;;6.87;100.00
70133;BME280;57495;49.922;7.966;2022-12-01T00:53:03;100662.53;;;6.86;100.00
70133;BME280;57495;49.922;7.966;2022-12-01T00:55:06;100673.19;;;6.86;100.00
70133;BME280;57495;49.922;7.966;2022-12-01T00:57:08;100668.78;;;6.85;100.00
70133;BME280;57495;49.922;7.966;2022-12-01T00:59:10;100667.00;;;6.85;100.00
70133;BME280;57495;49.922;7.966;2022-12-01T01:01:14;100673.28;;;6.84;100.00
70133;BME280;57495;49.922;7.966;2022-12-01T01:03:17;100669.78;;;6.84;100.00
70133;BME280;57495;49.922;7.966;2022-12-01T01:05:18;100667.09;;;6.84;100.00
70133;BME280;57495;49.922;7.966;2022-12-01T01:07:20;100662.88;;;6.81;100.00
70133;BME280;57495;49.922;7.966;2022-12-01T01:09:22;100679.19;;;6.75;100.00
70133;BME280;57495;49.922;7.966;2022-12-01T01:11:25;100681.44;;;6.68;100.00
70133;BME280;57495;49.922;7.966;2022-12-01T01:13:27;100681.91;;;6.61;100.00
70133;BME280;57495;49.922;7.966;2022-12-01T01:15:29;100675.09;;;6.56;100.00
70133;BME280;57495;49.922;7.966;2022-12-01T01:17:31;100681.28;;;6.57;100.00
70133;BME280;57495;49.922;7.966;2022-12-01T01:19:34;100684.56;;;6.61;100.00
70133;BME280;57495;49.922;7.966;2022-12-01T01:21:36;100686.47;;;6.58;100.00
70133;BME280;57495;49.922;7.966;2022-12-01T01:23:38;100691.91;;;6.57;100.00
70133;BME280;57495;49.922;7.966;2022-12-01T01:25:39;100687.81;;;6.51;100.00
70133;BME280;57495;49.922;7.966;2022-12-01T01:27:41;100688.28;;;6.58;100.00
70133;BME280;57495;49.922;7.966;2022-12-01T01:29:42;100691.59;;;6.62;100.00
70133;BME280;57495;49.922;7.966;2022-12-01T01:31:44;100690.66;;;6.63;100.00
70133;BME280;57495;49.922;7.966;2022-12-01T01:33:46;100691.69;;;6.60;100.00
70133;BME280;57495;49.922;7.966;2022-12-01T01:35:49;100695.31;;;6.59;100.00
70133;BME280;57495;49.922;7.966;2022-12-01T01:37:50;100684.13;;;6.54;100.00
70133;BME280;57495;49.922;7.966;2022-12-01T01:39:52;100695.69;;;6.53;100.00
70133;BME280;57495;49.922;7.966;2022-12-01T01:41:53;100694.63;;;6.43;100.00
70133;BME280;57495;49.922;7.966;2022-12-01T01:43:57;100685.91;;;6.41;100.00
70133;BME280;57495;49.922;7.966;2022-12-01T01:45:59;100691.69;;;6.33;100.00
70133;BME280;57495;49.922;7.966;2022-12-01T01:48:00;100695.78;;;6.24;100.00
70133;BME280;57495;49.922;7.966;2022-12-01T01:50:07;100698.53;;;6.23;100.00
70133;BME280;57495;49.922;7.966;2022-12-01T01:52:11;100701.09;;;6.24;100.00
70133;BME280;57495;49.922;7.966;2022-12-01T01:54:17;100701.09;;;6.24;100.00
70133;BME280;57495;49.922;7.966;2022-12-01T01:56:21;100708.09;;;6.25;100.00
70133;BME280;57495;49.922;7.966;2022-12-01T01:58:23;100704.91;;;6.20;100.00
70133;BME280;57495;49.922;7.966;2022-12-01T02:00:25;100707.66;;;6.18;100.00
70133;BME280;57495;49.922;7.966;2022-12-01T02:02:26;100708.03;;;6.12;100.00
70133;BME280;57495;49.922;7.966;2022-12-01T02:04:28;100711.94;;;6.07;100.00
70133;BME280;57495;49.922;7.966;2022-12-01T02:06:29;100706.84;;;6.04;100.00
70133;BME280;57495;49.922;7.966;2022-12-01T02:08:34;100706.53;;;6.08;100.00
70133;BME280;57495;49.922;7.966;2022-12-01T02:10:48;100708.44;;;6.06;100.00
70133;BME280;57495;49.922;7.966;2022-12-01T02:13:05;100712.22;;;6.02;100.00
70133;BME280;57495;49.922;7.966;2022-12-01T02:15:18;100704.53;;;5.97;100.00
70133;BME280;57495;49.922;7.966;2022-12-01T02:17:30;100705.13;;;6.03;100.00
70133;BME280;57495;49.922;7.966;2022-12-01T02:19:43;100702.75;;;5.98;100.00
70133;BME280;57495;49.922;7.966;2022-12-01T02:22:00;100713.47;;;5.96;100.00
70133;BME280;57495;49.922;7.966;2022-12-01T02:24:39;100711.38;;;6.02;100.00
70133;BME280;57495;49.922;7.966;2022-12-01T02:26:48;100710.50;;;6.01;100.00
70133;BME280;57495;49.922;7.966;2022-12-01T02:29:09;100706.84;;;6.04;100.00
70133;BME280;57495;49.922;7.966;2022-12-01T02:31:21;100712.28;;;5.86;100.00
70133;BME280;57495;49.922;7.966;2022-12-01T02:33:35;100710.59;;;5.71;100.00
70133;BME280;57495;49.922;7.966;2022-12-01T02:35:45;100712.66;;;5.66;100.00
70133;BME280;57495;49.922;7.966;2022-12-01T02:37:54;100705.09;;;5.59;100.00
70133;BME280;57495;49.922;7.966;2022-12-01T02:40:09;100705.28;;;5.56;100.00
70133;BME280;57495;49.922;7.966;2022-12-01T02:42:16;100707.94;;;5.56;100.00
70133;BME280;57495;49.922;7.966;2022-12-01T02:44:36;100713.81;;;5.61;100.00
70133;BME280;57495;49.922;7.966;2022-12-01T02:46:44;100714.38;;;5.52;100.00
70133;BME280;57495;49.922;7.966;2022-12-01T02:48:48;100706.56;;;5.35;100.00
70133;BME280;57495;49.922;7.966;2022-12-01T02:50:52;100708.66;;;5.30;100.00
70133;BME280;57495;49.922;7.966;2022-12-01T02:52:56;100712.44;;;5.26;100.00
70133;BME280;57495;49.922;7.966;2022-12-01T02:54:58;100711.78;;;5.22;100.00
70133;BME280;57495;49.922;7.966;2022-12-01T02:57:00;100716.78;;;5.27;100.00
70133;BME280;57495;49.922;7.966;2022-12-01T02:59:07;100717.41;;;5.16;100.00
70133;BME280;57495;49.922;7.966;2022-12-01T03:01:24;100719.69;;;5.08;100.00
70133;BME280;57495;49.922;7.966;2022-12-01T03:03:43;100727.03;;;5.02;100.00
70133;BME280;57495;49.922;7.966;2022-12-01T03:05:54;100720.91;;;5.02;100.00
70133;BME280;57495;49.922;7.966;2022-12-01T03:08:07;100720.91;;;5.02;100.00
70133;BME280;57495;49.922;7.966;2022-12-01T03:10:18;100717.91;;;4.92;100.00
70133;BME280;57495;49.922;7.966;2022-12-01T03:12:28;100721.06;;;4.99;100.00
70133;BME280;57495;49.922;7.966;2022-12-01T03:14:38;100715.94;;;4.96;100.00
70133;BME280;57495;49.922;7.966;2022-12-01T03:16:46;100711.69;;;4.93;100.00
70133;BME280;57495;49.922;7.966;2022-12-01T03:18:54;100708.88;;;4.96;100.00
70133;BME280;57495;49.922;7.966;2022-12-01T03:21:01;100711.16;;;4.87;100.00
70133;BME280;57495;49.922;7.966;2022-12-01T03:23:07;100710.25;;;4.88;100.00
70133;BME280;57495;49.922;7.966;2022-12-01T03:25:11;100716.66;;;4.83;100.00
70133;BME280;57495;49.922;7.966;2022-12-01T03:27:14;100715.31;;;4.76;100.00
70133;BME280;57495;49.922;7.966;2022-12-01T03:29:20;100711.16;;;4.87;100.00
70133;BME280;57495;49.922;7.966;2022-12-01T03:31:29;100711.16;;;4.87;100.00
70133;BME280;57495;49.922;7.966;2022-12-01T03:33:35;100704.94;;;4.88;100.00
70133;BME280;57495;49.922;7.966;2022-12-01T03:35:44;100708.88;;;4.80;100.00
70133;BME280;57495;49.922;7.966;2022-12-01T03:37:52;100712.22;;;4.84;100.00
70133;BME280;57495;49.922;7.966;2022-12-01T03:39:55;100704.19;;;4.86;100.00
70133;BME280;57495;49.922;7.966;2022-12-01T03:42:00;100712.22;;;4.84;100.00
70133;BME280;57495;49.922;7.966;2022-12-01T03:44:08;100721.78;;;4.87;100.00
70133;BME280;57495;49.922;7.966;2022-12-01T03:46:16;100721.97;;;4.83;100.00
70133;BME280;57495;49.922;7.966;2022-12-01T03:48:19;100721.88;;;4.85;100.00
70133;BME280;57495;49.922;7.966;2022-12-01T03:50:26;100717.69;;;4.81;100.00
70133;BME280;57495;49.922;7.966;2022-12-01T03:52:37;100727.06;;;4.87;100.00
70133;BME280;57495;49.922;7.966;2022-12-01T03:54:45;100722.56;;;4.89;100.00
70133;BME280;57495;49.922;7.966;2022-12-01T03:56:55;100716.47;;;4.87;100.00
70133;BME280;57495;49.922;7.966;2022-12-01T03:59:02;100720.94;;;4.86;100.00
70133;BME280;57495;49.922;7.966;2022-12-01T04:01:07;100722.56;;;4.89;100.00
70133;BME280;57495;49.922;7.966;2022-12-01T04:03:15;100716.47;;;4.87;100.00
70133;BME280;57495;49.922;7.966;2022-12-01T04:05:17;100731.28;;;4.91;100.00
70133;BME280;57495;49.922;7.966;2022-12-01T04:07:19;100727.59;;;4.93;100.00
70133;BME280;57495;49.922;7.966;2022-12-01T04:09:23;100738.00;;;4.96;100.00
70133;BME280;57495;49.922;7.966;2022-12-01T04:11:24;100731.75;;;4.97;100.00
70133;BME280;57495;49.922;7.966;2022-12-01T04:13:43;100733.09;;;5.04;100.00
70133;BME280;57495;49.922;7.966;2022-12-01T04:15:45;100738.69;;;5.00;100.00
70133;BME280;57495;49.922;7.966;2022-12-01T04:17:46;100736.59;;;5.05;100.00
70133;BME280;57495;49.922;7.966;2022-12-01T04:19:48;100737.66;;;5.02;100.00
70133;BME280;57495;49.922;7.966;2022-12-01T04:21:50;100741.81;;;5.07;100.00
70133;BME280;57495;49.922;7.966;2022-12-01T04:23:51;100751.22;;;5.12;100.00
70133;BME280;57495;49.922;7.966;2022-12-01T04:26:04;100746.09;;;5.09;100.00
70133;BME280;57495;49.922;7.966;2022-12-01T04:28:06;100740.22;;;5.04;100.00
70133;BME280;57495;49.922;7.966;2022-12-01T04:30:08;100741.34;;;5.00;100.00
70133;BME280;57495;49.922;7.966;2022-12-01T04:32:10;100742.09;;;5.02;100.00
70133;BME280;57495;49.922;7.966;2022-12-01T04:34:12;100743.47;;;5.09;100.00
70133;BME280;57495;49.922;7.966;2022-12-01T04:36:14;100745.34;;;5.07;100.00
70133;BME280;57495;49.922;7.966;2022-12-01T04:38:15;100742.28;;;4.99;100.00
70133;BME280;57495;49.922;7.966;2022-12-01T04:40:17;100747.41;;;5.02;100.00
70133;BME280;57495;49.922;7.966;2022-12-01T04:42:20;100740.22;;;5.04;100.00
70133;BME280;57495;49.922;7.966;2022-12-01T04:44:21;100745.16;;;5.10;100.00
70133;BME280;57495;49.922;7.966;2022-12-01T04:46:23;100745.34;;;5.07;100.00
70133;BME280;57495;49.922;7.966;2022-12-01T04:48:25;100745.16;;;5.10;100.00
70133;BME280;57495;49.922;7.966;2022-12-01T04:50:26;100742.03;;;5.03;100.00
70133;BME280;57495;49.922;7.966;2022-12-01T04:52:28;100741.88;;;4.91;100.00
70133;BME280;57495;49.922;7.966;2022-12-01T04:54:29;100737.81;;;4.99;100.00
70133;BME280;57495;49.922;7.966;2022-12-01T04:56:31;100738.72;;;4.84;100.00
70133;BME280;57495;49.922;7.966;2022-12-01T04:58:35;100736.66;;;4.89;100.00
70133;BME280;57495;49.922;7.966;2022-12-01T05:00:37;100740.31;;;4.87;100.00
70133;BME280;57495;49.922;7.966;2022-12-01T05:02:39;100737.00;;;4.83;100.00
70133;BME280;57495;49.922;7.966;2022-12-01T05:04:42;100739.38;;;4.88;100.00
70133;BME280;57495;49.922;7.966;2022-12-01T05:06:47;100743.66;;;4.90;100.00
70133;BME280;57495;49.922;7.966;2022-12-01T05:08:49;100745.38;;;4.91;100.00
70133;BME280;57495;49.922;7.966;2022-12-01T05:10:53;100743.75;;;4.89;100.00
70133;BME280;57495;49.922;7.966;2022-12-01T05:12:55;100744.00;;;4.84;100.00
70133;BME280;57495;49.922;7.966;2022-12-01T05:14:58;100747.34;;;4.88;100.00
70133;BME280;57495;49.922;7.966;2022-12-01T05:17:00;100749.63;;;4.94;100.00
70133;BME280;57495;49.922;7.966;2022-12-01T05:19:03;100747.25;;;4.89;100.00
70133;BME280;57495;49.922;7.966;2022-12-01T05:21:23;100744.69;;;4.88;100.00
70133;BME280;57495;49.922;7.966;2022-12-01T05:23:25;100751.34;;;4.95;100.00
70133;BME280;57495;49.922;7.966;2022-12-01T05:25:26;100745.44;;;4.90;100.00
70133;BME280;57495;49.922;7.966;2022-12-01T05:27:28;100738.34;;;4.90;100.00
70133;BME280;57495;49.922;7.966;2022-12-01T05:29:29;100744.28;;;4.79;100.00
70133;BME280;57495;49.922;7.966;2022-12-01T05:31:33;100746.94;;;4.79;100.00
70133;BME280;57495;49.922;7.966;2022-12-01T05:33:35;100748.47;;;4.83;100.00
70133;BME280;57495;49.922;7.966;2022-12-01T05:35:37;100749.72;;;4.92;100.00
70133;BME280;57495;49.922;7.966;2022-12-01T05:37:38;100748.88;;;4.92;100.00
70133;BME280;57495;49.922;7.966;2022-12-01T05:39:40;100748.41;;;4.99;100.00
70133;BME280;57495;49.922;7.966;2022-12-01T05:41:41;100749.16;;;4.87;100.00
70133;BME280;57495;49.922;7.966;2022-12-01T05:43:43;100748.09;;;4.90;100.00
70133;BME280;57495;49.922;7.966;2022-12-01T05:45:44;100753.03;;;4.96;100.00
70133;BME280;57495;49.922;7.966;2022-12-01T05:47:47;100749.28;;;5.00;100.00
70133;BME280;57495;49.922;7.966;2022-12-01T05:49:49;100752.38;;;4.92;100.00
70133;BME280;57495;49.922;7.966;2022-12-01T05:51:50;100749.63;;;4.94;100.00
70133;BME280;57495;49.922;7.966;2022-12-01T05:53:52;100751.19;;;4.98;100.00
70133;BME280;57495;49.922;7.966;2022-12-01T05:55:54;100750.00;;;4.88;100.00
70133;BME280;57495;49.922;7.966;2022-12-01T05:57:55;100753.41;;;4.90;100.00
70133;BME280;57495;49.922;7.966;2022-12-01T05:59:57;100761.19;;;4.93;100.00
70133;BME280;57495;49.922;7.966;2022-12-01T06:01:59;100762.47;;;4.86;100.00
70133;BME280;57495;49.922;7.966;2022-12-01T06:04:02;100761.13;;;4.78;100.00
70133;BME280;57495;49.922;7.966;2022-12-01T06:06:04;100755.44;;;4.84;100.00
70133;BME280;57495;49.922;7.966;2022-12-01T06:08:06;100764.16;;;4.87;100.00
70133;BME280;57495;49.922;7.966;2022-12-01T06:10:09;100760.84;;;4.83;100.00
70133;BME280;57495;49.922;7.966;2022-12-01T06:12:11;100763.00;;;4.76;100.00
70133;BME280;57495;49.922;7.966;2022-12-01T06:14:13;100758.38;;;4.64;100.00
70133;BME280;57495;49.922;7.966;2022-12-01T06:16:14;100765.56;;;4.62;100.00
70133;BME280;57495;49.922;7.966;2022-12-01T06:18:16;100762.91;;;4.62;100.00
70133;BME280;57495;49.922;7.966;2022-12-01T06:20:19;100764.53;;;4.64;100.00
70133;BME280;57495;49.922;7.966;2022-12-01T06:22:20;100759.34;;;4.63;100.00
70133;BME280;57495;49.922;7.966;2022-12-01T06:24:22;100764.88;;;4.58;100.00
70133;BME280;57495;49.922;7.966;2022-12-01T06:26:24;100763.28;;;4.56;100.00
70133;BME280;57495;49.922;7.966;2022-12-01T06:28:25;100766.00;;;4.54;100.00
70133;BME280;57495;49.922;7.966;2022-12-01T06:30:27;100768.31;;;4.44;100.00
70133;BME280;57495;49.922;7.966;2022-12-01T06:32:28;100769.50;;;4.55;100.00
70133;BME280;57495;49.922;7.966;2022-12-01T06:34:30;100776.50;;;4.56;100.00
70133;BME280;57495;49.922;7.966;2022-12-01T06:36:33;100774.09;;;4.51;100.00
70133;BME280;57495;49.922;7.966;2022-12-01T06:38:37;100776.50;;;4.56;100.00
70133;BME280;57495;49.922;7.966;2022-12-01T06:40:38;100771.22;;;4.56;100.00
70133;BME280;57495;49.922;7.966;2022-12-01T06:42:40;100776.50;;;4.56;100.00
70133;BME280;57495;49.922;7.966;2022-12-01T06:44:41;100780.59;;;4.45;100.00
70133;BME280;57495;49.922;7.966;2022-12-01T06:46:43;100781.81;;;4.56;100.00
70133;BME280;57495;49.922;7.966;2022-12-01T06:48:51;100787.78;;;4.59;100.00
70133;BME280;57495;49.922;7.966;2022-12-01T06:50:55;100785.16;;;4.59;100.00
70133;BME280;57495;49.922;7.966;2022-12-01T06:52:58;100789.75;;;4.56;100.00
70133;BME280;57495;49.922;7.966;2022-12-01T06:55:00;100784.47;;;4.56;100.00
70133;BME280;57495;49.922;7.966;2022-12-01T06:57:03;100792.47;;;4.38;100.00
70133;BME280;57495;49.922;7.966;2022-12-01T06:59:05;100789.03;;;4.36;100.00
70133;BME280;57495;49.922;7.966;2022-12-01T07:01:07;100792.38;;;4.40;100.00
70133;BME280;57495;49.922;7.966;2022-12-01T07:03:09;100793.41;;;4.37;100.00
70133;BME280;57495;49.922;7.966;2022-12-01T07:05:11;100799.66;;;4.52;100.00
70133;BME280;57495;49.922;7.966;2022-12-01T07:07:13;100802.41;;;4.51;100.00
70133;BME280;57495;49.922;7.966;2022-12-01T07:09:17;100800.09;;;4.44;100.00
70133;BME280;57495;49.922;7.966;2022-12-01T07:11:18;100806.38;;;4.42;100.00
70133;BME280;57495;49.922;7.966;2022-12-01T07:13:20;100807.25;;;4.42;100.00
70133;BME280;57495;49.922;7.966;2022-12-01T07:15:21;100808.97;;;4.43;100.00
70133;BME280;57495;49.922;7.966;2022-12-01T07:17:23;100816.28;;;4.38;100.00
70133;BME280;57495;49.922;7.966;2022-12-01T07:19:31;100808.13;;;4.43;100.00
70133;BME280;57495;49.922;7.966;2022-12-01T07:21:33;100809.03;;;4.42;100.00
70133;BME280;57495;49.922;7.966;2022-12-01T07:23:35;100812.88;;;4.36;100.00
70133;BME280;57495;49.922;7.966;2022-12-01T07:25:38;100822.63;;;4.36;100.00
70133;BME280;57495;49.922;7.966;2022-12-01T07:27:39;100819.44;;;4.29;100.00
70133;BME280;57495;49.922;7.966;2022-12-01T07:29:41;100825.50;;;4.31;100.00
70133;BME280;57495;49.922;7.966;2022-12-01T07:31:46;100828.16;;;4.31;100.00
70133;BME280;57495;49.922;7.966;2022-12-01T07:33:47;100828.59;;;4.39;100.00
70133;BME280;57495;49.922;7.966;2022-12-01T07:35:51;100823.81;;;4.30;100.00
70133;BME280;57495;49.922;7.966;2022-12-01T07:37:53;100832.53;;;4.32;100.00
70133;BME280;57495;49.922;7.966;2022-12-01T07:39:55;100832.53;;;4.32;100.00
70133;BME280;57495;49.922;7.966;2022-12-01T07:41:58;100825.50;;;4.31;100.00
70133;BME280;57495;49.922;7.966;2022-12-01T07:44:00;100830.31;;;4.40;100.00
70133;BME280;57495;49.922;7.966;2022-12-01T07:46:06;100830.56;;;4.36;100.00
70133;BME280;57495;49.922;7.966;2022-12-01T07:48:07;100846.78;;;4.30;100.00
70133;BME280;57495;49.922;7.966;2022-12-01T07:50:10;100844.22;;;4.28;100.00
70133;BME280;57495;49.922;7.966;2022-12-01T07:52:11;100841.84;;;4.06;100.00
70133;BME280;57495;49.922;7.966;2022-12-01T07:54:13;100842.69;;;4.06;100.00
70133;BME280;57495;49.922;7.966;2022-12-01T07:56:17;100845.47;;;4.21;100.00
70133;BME280;57495;49.922;7.966;2022-12-01T07:58:20;100842.69;;;4.24;100.00
70133;BME280;57495;49.922;7.966;2022-12-01T08:00:22;100841.56;;;4.28;100.00
70133;BME280;57495;49.922;7.966;2022-12-01T08:02:23;100851.66;;;4.37;100.00
70133;BME280;57495;49.922;7.966;2022-12-01T08:04:25;100846.88;;;4.28;100.00
70133;BME280;57495;49.922;7.966;2022-12-01T08:06:26;100851.22;;;4.29;100.00
70133;BME280;57495;49.922;7.966;2022-12-01T08:08:31;100849.38;;;4.14;100.00
70133;BME280;57495;49.922;7.966;2022-12-01T08:10:33;100854.03;;;4.26;100.00
70133;BME280;57495;49.922;7.966;2022-12-01T08:12:35;100852.66;;;4.19;100.00
70133;BME280;57495;49.922;7.966;2022-12-01T08:14:37;100848.75;;;4.26;100.00
70133;BME280;57495;49.922;7.966;2022-12-01T08:16:39;100849.03;;;4.20;100.00
70133;BME280;57495;49.922;7.966;2022-12-01T08:18:44;100854.03;;;4.26;100.00
70133;BME280;57495;49.922;7.966;2022-12-01T08:20:46;100859.00;;;4.32;100.00
70133;BME280;57495;49.922;7.966;2022-12-01T08:22:48;100855.41;;;4.33;100.00
70133;BME280;57495;49.922;7.966;2022-12-01T08:24:49;100849.25;;;4.33;100.00
70133;BME280;57495;49.922;7.966;2022-12-01T08:26:51;100856.19;;;4.35;100.00
70133;BME280;57495;49.922;7.966;2022-12-01T08:28:54;100860.88;;;4.30;100.00
70133;BME280;57495;49.922;7.966;2022-12-01T08:31:01;100862.06;;;4.40;100.00
70133;BME280;57495;49.922;7.966;2022-12-01T08:33:06;100862.75;;;4.28;100.00
70133;BME280;57495;49.922;7.966;2022-12-01T08:35:08;100865.75;;;4.38;100.00
70133;BME280;57495;49.922;7.966;2022-12-01T08:37:10;100865.53;;;4.42;100.00
70133;BME280;57495;49.922;7.966;2022-12-01T08:39:12;100868.75;;;4.48;100.00
70133;BME280;57495;49.922;7.966;2022-12-01T08:41:14;100877.47;;;4.50;100.00
70133;BME280;57495;49.922;7.966;2022-12-01T08:43:15;100876.28;;;4.39;100.00
70133;BME280;57495;49.922;7.966;2022-12-01T08:45:17;100876.59;;;4.33;100.00
70133;BME280;57495;49.922;7.966;2022-12-01T08:47:20;100880.03;;;4.18;100.00
70133;BME280;57495;49.922;7.966;2022-12-01T08:49:22;100877.38;;;4.18;100.00
70133;BME280;57495;49.922;7.966;2022-12-01T08:51:25;100875.22;;;4.26;100.00
70133;BME280;57495;49.922;7.966;2022-12-01T08:53:27;100876.75;;;4.30;100.00
70133;BME280;57495;49.922;7.966;2022-12-01T08:55:29;100868.88;;;4.29;100.00
70133;BME280;57495;49.922;7.966;2022-12-01T08:57:31;100877.59;;;4.31;100.00
70133;BME280;57495;49.922;7.966;2022-12-01T08:59:33;100872.72;;;4.23;100.00
70133;BME280;57495;49.922;7.966;2022-12-01T09:01:34;100872.22;;;4.32;100.00
70133;BME280;57495;49.922;7.966;2022-12-01T09:03:52;100874.88;;;4.32;100.00
70133;BME280;57495;49.922;7.966;2022-12-01T09:06:06;100870.34;;;4.34;100.00
70133;BME280;57495;49.922;7.966;2022-12-01T09:08:08;100871.13;;;4.36;100.00
70133;BME280;57495;49.922;7.966;2022-12-01T09:10:27;100875.16;;;4.43;100.00
70133;BME280;57495;49.922;7.966;2022-12-01T09:12:29;100876.13;;;4.42;100.00
70133;BME280;57495;49.922;7.966;2022-12-01T09:14:30;100875.50;;;4.37;100.00
70133;BME280;57495;49.922;7.966;2022-12-01T09:16:32;100882.09;;;4.46;100.00
70133;BME280;57495;49.922;7.966;2022-12-01T09:18:33;100882.09;;;4.46;100.00
70133;BME280;57495;49.922;7.966;2022-12-01T09:20:36;100881.06;;;4.49;100.00
70133;BME280;57495;49.922;7.966;2022-12-01T09:22:38;100892.00;;;4.42;100.00
70133;BME280;57495;49.922;7.966;2022-12-01T09:24:40;100892.78;;;4.44;100.00
70133;BME280;57495;49.922;7.966;2022-12-01T09:26:41;100883.94;;;4.28;100.00
70133;BME280;57495;49.922;7.966;2022-12-01T09:28:43;100881.84;;;4.17;99.88
70133;BME280;57495;49.922;7.966;2022-12-01T09:30:46;100886.72;;;4.25;99.63
70133;BME280;57495;49.922;7.966;2022-12-01T09:32:47;100886.06;;;4.04;98.81
70133;BME280;57495;49.922;7.966;2022-12-01T09:34:49;100896.28;;;3.94;98.94
70133;BME280;57495;49.922;7.966;2022-12-01T09:36:53;100891.44;;;4.02;99.73
70133;BME280;57495;49.922;7.966;2022-12-01T09:38:55;100891.59;;;4.17;99.54
70133;BME280;57495;49.922;7.966;2022-12-01T09:41:00;100886.59;;;4.11;98.76
70133;BME280;57495;49.922;7.966;2022-12-01T09:43:04;100885.25;;;4.19;99.12
70133;BME280;57495;49.922;7.966;2022-12-01T09:45:14;100893.28;;;4.18;98.55
70133;BME280;57495;49.922;7.966;2022-12-01T09:47:20;100886.97;;;4.20;98.92
70133;BME280;57495;49.922;7.966;2022-12-01T09:49:25;100886.44;;;4.14;98.73
70133;BME280;57495;49.922;7.966;2022-12-01T09:51:29;100887.84;;;4.21;98.72
70133;BME280;57495;49.922;7.966;2022-12-01T09:53:37;100882.38;;;4.24;99.26
70133;BME280;57495;49.922;7.966;2022-12-01T09:55:38;100872.88;;;4.20;98.68
70133;BME280;57495;49.922;7.966;2022-12-01T09:57:41;100872.28;;;4.15;97.74
70133;BME280;57495;49.922;7.966;2022-12-01T09:59:44;100871.63;;;4.27;98.31
70133;BME280;57495;49.922;7.966;2022-12-01T10:01:51;100871.94;;;4.21;98.22
70133;BME280;57495;49.922;7.966;2022-12-01T10:03:58;100865.53;;;4.25;97.94
70133;BME280;57495;49.922;7.966;2022-12-01T10:06:05;100863.25;;;4.35;98.13
70133;BME280;57495;49.922;7.966;2022-12-01T10:08:13;100856.00;;;4.38;98.54
70133;BME280;57495;49.922;7.966;2022-12-01T10:10:28;100859.34;;;4.26;98.06
70133;BME280;57495;49.922;7.966;2022-12-01T10:12:32;100859.00;;;4.32;98.82
70133;BME280;57495;49.922;7.966;2022-12-01T10:14:35;100858.66;;;4.38;99.42
70133;BME280;57495;49.922;7.966;2022-12-01T10:16:44;100851.19;;;4.47;99.17
70133;BME280;57495;49.922;7.966;2022-12-01T10:18:55;100853.06;;;4.44;98.93
70133;BME280;57495;49.922;7.966;2022-12-01T10:21:09;100845.53;;;4.53;98.35
70133;BME280;57495;49.922;7.966;2022-12-01T10:23:21;100846.03;;;4.43;98.58
70133;BME280;57495;49.922;7.966;2022-12-01T10:25:29;100849.91;;;4.54;98.05
70133;BME280;57495;49.922;7.966;2022-12-01T10:27:42;100839.88;;;4.59;97.82
70133;BME280;57495;49.922;7.966;2022-12-01T10:29:48;100832.91;;;4.58;97.01
70133;BME280;57495;49.922;7.966;2022-12-01T10:31:54;100844.19;;;4.61;97.25
70133;BME280;57495;49.922;7.966;2022-12-01T10:34:00;100839.56;;;4.65;97.21
70133;BME280;57495;49.922;7.966;2022-12-01T10:36:02;100849.97;;;4.52;95.83
70133;BME280;57495;49.922;7.966;2022-12-01T10:38:05;100852.16;;;4.28;97.20
70133;BME280;57495;49.922;7.966;2022-12-01T10:40:11;100839.19;;;4.39;96.54
70133;BME280;57495;49.922;7.966;2022-12-01T10:42:16;100845.53;;;4.53;95.90
70133;BME280;57495;49.922;7.966;2022-12-01T10:44:20;100834.94;;;4.53;95.52
70133;BME280;57495;49.922;7.966;2022-12-01T10:46:23;100838.00;;;4.45;97.09
70133;BME280;57495;49.922;7.966;2022-12-01T10:48:29;100835.56;;;4.58;97.94
70133;BME280;57495;49.922;7.966;2022-12-01T10:50:30;100838.63;;;4.50;98.41